Aviation Digital Data Service (ADDS)

Output produced by METARs form (1349 UTC 04 August 2015)
found at http://aviationweather.gov/adds/metars/
 
KAEX 041253Z 00000KT 7SM CLR 26/23 A2996 RMK AO2 SLP146 T02560228